createdAt,value
2017-09-22T00:00:05.658Z,14.2
2017-09-22T00:05:04.938Z,14.1
2017-09-22T00:10:31.026Z,14.1
2017-09-22T00:15:05.295Z,14.1
2017-09-22T00:20:10.684Z,14
2017-09-22T00:25:02.437Z,14
2017-09-22T00:30:10.778Z,14
2017-09-22T00:35:10.113Z,13.9
2017-09-22T00:40:03.327Z,13.9
2017-09-22T00:45:05.630Z,13.9
2017-09-22T00:50:07.445Z,13.8
2017-09-22T00:55:05.678Z,13.8
2017-09-22T01:00:02.418Z,13.8
2017-09-22T01:05:15.101Z,13.7
2017-09-22T01:10:10.907Z,13.7
2017-09-22T01:15:05.146Z,13.7
2017-09-22T01:20:10.571Z,13.7
2017-09-22T01:25:03.348Z,13.7
2017-09-22T01:30:10.706Z,13.8
2017-09-22T01:35:15.125Z,13.8
2017-09-22T01:40:05.897Z,13.8
2017-09-22T01:45:02.649Z,13.8
2017-09-22T01:50:02.409Z,13.9
2017-09-22T01:55:03.178Z,13.9
2017-09-22T02:00:15.592Z,14
2017-09-22T02:05:04.877Z,14.1
2017-09-22T02:10:05.656Z,14.1
2017-09-22T02:15:04.939Z,14.2
2017-09-22T02:20:02.774Z,14.1
2017-09-22T02:25:10.144Z,14.2
2017-09-22T02:30:18.079Z,14.1
2017-09-22T02:35:23.098Z,14.1
2017-09-22T02:40:07.407Z,14.1
2017-09-22T02:45:10.732Z,14.1
2017-09-22T02:50:05.010Z,14.2
2017-09-22T02:55:02.782Z,14.2
2017-09-22T03:00:05.101Z,14.2
2017-09-22T03:05:12.983Z,14.2
2017-09-22T03:10:20.930Z,14.2
2017-09-22T03:15:05.212Z,14.2
2017-09-22T03:20:03.021Z,14.2
2017-09-22T03:25:10.353Z,14.2
2017-09-22T03:30:05.662Z,14.2
2017-09-22T03:35:05.466Z,14.2
2017-09-22T03:40:02.687Z,14.1
2017-09-22T03:45:04.990Z,14.2
2017-09-22T03:50:25.562Z,14.2
2017-09-22T03:55:03.291Z,14.2
2017-09-22T04:00:20.796Z,14.2
2017-09-22T04:05:07.594Z,14.1
2017-09-22T04:10:05.370Z,14.1
2017-09-22T04:15:10.725Z,14.1
2017-09-22T04:20:30.365Z,14.1
2017-09-22T04:25:25.864Z,14.2
2017-09-22T04:30:07.673Z,14.2
2017-09-22T04:35:12.548Z,14.1
2017-09-22T04:40:17.970Z,14.1
2017-09-22T04:45:03.002Z,14.1
2017-09-22T04:50:10.353Z,14.1
2017-09-22T04:55:30.923Z,14.1
2017-09-22T05:00:07.735Z,14.1
2017-09-22T05:05:04.991Z,14.1
2017-09-22T05:10:03.219Z,14.1
2017-09-22T05:15:02.970Z,14.1
2017-09-22T05:20:10.413Z,14
2017-09-22T05:25:08.206Z,14
2017-09-22T05:30:08.023Z,14
2017-09-22T05:35:02.770Z,14
2017-09-22T05:40:03.041Z,13.9
2017-09-22T05:45:07.879Z,13.9
2017-09-22T05:50:02.660Z,13.9
2017-09-22T05:55:04.954Z,13.8
2017-09-22T06:00:07.788Z,13.9
2017-09-22T06:05:05.121Z,13.9
2017-09-22T06:10:30.200Z,14
2017-09-22T06:15:08.375Z,14.1
2017-09-22T06:20:10.784Z,14.1
2017-09-22T06:25:10.145Z,14.2
2017-09-22T06:30:23.131Z,14.2
2017-09-22T06:35:07.941Z,14.3
2017-09-22T06:40:23.425Z,14.2
2017-09-22T06:45:30.993Z,14.3
2017-09-22T06:50:02.784Z,14.3
2017-09-22T06:55:20.241Z,14.5
2017-09-22T07:00:02.961Z,14.5
2017-09-22T07:05:02.724Z,14.5
2017-09-22T07:10:02.983Z,14.6
2017-09-22T07:15:02.756Z,14.6
2017-09-22T07:20:15.292Z,14.4
2017-09-22T07:25:03.030Z,14.4
2017-09-22T07:30:10.385Z,14.7
2017-09-22T07:35:05.669Z,14.9
2017-09-22T07:40:18.081Z,15
2017-09-22T07:45:10.426Z,15.1
2017-09-22T07:50:03.172Z,15
2017-09-22T07:55:02.911Z,15.1
2017-09-22T08:00:17.861Z,15.3
2017-09-22T08:05:07.667Z,15.4
2017-09-22T08:10:05.491Z,15.5
2017-09-22T08:15:20.930Z,15.5
2017-09-22T08:20:02.761Z,15.4
2017-09-22T08:25:10.085Z,15.5
2017-09-22T08:30:10.434Z,15.5
2017-09-22T08:35:03.182Z,15.5
2017-09-22T08:40:25.218Z,15.7
2017-09-22T08:45:10.526Z,15.8
2017-09-22T08:50:28.572Z,16
2017-09-22T08:55:05.869Z,16.1
2017-09-22T09:00:20.317Z,16.2
2017-09-22T09:05:05.590Z,16.3
2017-09-22T09:10:05.373Z,16.3
2017-09-22T09:15:05.691Z,16.4
2017-09-22T09:20:10.137Z,16.2
2017-09-22T09:25:02.873Z,16.2
2017-09-22T09:30:10.218Z,16
2017-09-22T09:35:15.631Z,16.1
2017-09-22T09:40:07.920Z,16.1
2017-09-22T09:45:02.650Z,16.1
2017-09-22T09:50:02.990Z,16.2
2017-09-22T09:55:07.821Z,16.3
2017-09-22T10:00:05.111Z,16.3
2017-09-22T10:05:05.409Z,16.4
2017-09-22T10:10:10.274Z,16.6
2017-09-22T10:15:03.031Z,16.6
2017-09-22T10:20:07.952Z,16.9
2017-09-22T10:25:07.759Z,17.1
2017-09-22T10:30:07.606Z,17.2
2017-09-22T10:35:03.340Z,17.2
2017-09-22T10:40:05.069Z,17.7
2017-09-22T10:45:07.857Z,17.6
2017-09-22T10:50:05.095Z,17.6
2017-09-22T10:55:05.369Z,17.6
2017-09-22T11:00:13.211Z,17.6
2017-09-22T11:05:02.971Z,17.6
2017-09-22T11:10:08.269Z,17.5
2017-09-22T11:15:10.618Z,17.6
2017-09-22T11:20:02.391Z,17.6
2017-09-22T11:25:05.661Z,18
2017-09-22T11:30:07.498Z,17.9
2017-09-22T11:35:03.260Z,17.9
2017-09-22T11:40:05.027Z,18
2017-09-22T11:45:02.771Z,18
2017-09-22T11:50:02.521Z,18.1
2017-09-22T11:55:08.327Z,18.3
2017-09-22T12:00:05.598Z,18.5
2017-09-22T12:05:03.343Z,18.5
2017-09-22T12:10:07.665Z,18.8
2017-09-22T12:15:10.006Z,19
2017-09-22T12:20:05.401Z,19.1
2017-09-22T12:25:10.736Z,19.1
2017-09-22T12:30:04.971Z,19.3
2017-09-22T12:35:02.700Z,19.3
2017-09-22T12:40:02.921Z,19.6
2017-09-22T12:45:07.779Z,20.4
2017-09-22T12:50:05.051Z,21
2017-09-22T12:55:10.398Z,21.6
2017-09-22T13:00:03.139Z,21.6
2017-09-22T13:05:02.891Z,21.8
2017-09-22T13:10:05.698Z,21.7
2017-09-22T13:15:12.645Z,22
2017-09-22T13:20:02.477Z,21.9
2017-09-22T13:25:03.231Z,22.5
2017-09-22T13:30:03.011Z,22.9
2017-09-22T13:35:07.839Z,23.1
2017-09-22T13:40:30.912Z,23.3
2017-09-22T13:45:15.314Z,23.4
2017-09-22T13:50:07.598Z,23
2017-09-22T13:55:12.500Z,22.7
2017-09-22T14:00:20.956Z,22.6
2017-09-22T14:05:07.729Z,22.2
2017-09-22T14:10:10.612Z,21.9
2017-09-22T14:15:10.000Z,22
2017-09-22T14:20:07.914Z,22.1
2017-09-22T14:25:07.710Z,22.3
2017-09-22T14:30:07.509Z,22.4
2017-09-22T14:35:03.273Z,22.4
2017-09-22T14:40:05.115Z,22.9
2017-09-22T14:45:07.948Z,23
2017-09-22T14:50:02.652Z,23
2017-09-22T14:55:07.478Z,23.1
2017-09-22T15:00:10.802Z,23.2
2017-09-22T15:05:02.593Z,23.2
2017-09-22T15:10:02.823Z,23.4
2017-09-22T15:15:02.658Z,23.4
2017-09-22T15:20:05.031Z,23.1
2017-09-22T15:25:08.164Z,22.8
2017-09-22T15:30:07.969Z,22.6
2017-09-22T15:35:02.713Z,22.6
2017-09-22T15:40:20.655Z,22.5
2017-09-22T15:45:04.927Z,22.4
2017-09-22T15:50:17.891Z,22.3
2017-09-22T15:55:07.710Z,22
2017-09-22T16:00:10.047Z,21.7
2017-09-22T16:05:02.800Z,21.7
2017-09-22T16:10:03.033Z,21.5
2017-09-22T16:15:07.843Z,21
2017-09-22T16:20:12.798Z,20.8
2017-09-22T16:25:02.554Z,20.8
2017-09-22T16:30:05.892Z,20.5
2017-09-22T16:35:12.787Z,20.4
2017-09-22T16:40:08.089Z,20.1
2017-09-22T16:45:05.320Z,19.9
2017-09-22T16:50:05.593Z,19.6
2017-09-22T16:55:05.878Z,19.5
2017-09-22T17:00:07.680Z,19.3
2017-09-22T17:05:04.961Z,19.1
2017-09-22T17:10:03.225Z,19
2017-09-22T17:15:08.030Z,18.6
2017-09-22T17:20:02.842Z,18.6
2017-09-22T17:25:07.650Z,18.3
2017-09-22T17:30:12.527Z,18.1
2017-09-22T17:35:05.779Z,17.9
2017-09-22T17:40:18.236Z,17.7
2017-09-22T17:45:05.529Z,17.6
2017-09-22T17:50:15.937Z,17.4
2017-09-22T17:55:02.650Z,17.4
2017-09-22T18:00:20.099Z,17
2017-09-22T18:05:02.859Z,17
2017-09-22T18:10:05.643Z,16.8
2017-09-22T18:15:10.002Z,16.5
2017-09-22T18:20:10.491Z,16.4
2017-09-22T18:25:05.820Z,16.3
2017-09-22T18:30:07.630Z,16.2
2017-09-22T18:35:09.991Z,16.1
2017-09-22T18:40:08.291Z,15.9
2017-09-22T18:45:03.052Z,16
2017-09-22T18:50:05.319Z,15.8
2017-09-22T18:55:10.677Z,15.6
2017-09-22T19:00:17.591Z,15.5
2017-09-22T19:05:13.471Z,15.4
2017-09-22T19:10:05.219Z,15.2
2017-09-22T19:15:05.529Z,15.2
2017-09-22T19:20:10.946Z,15
2017-09-22T19:25:07.757Z,14.9
2017-09-22T19:30:05.017Z,14.8
2017-09-22T19:35:17.976Z,14.6
2017-09-22T19:40:10.836Z,14.5
2017-09-22T19:45:02.572Z,14.5
2017-09-22T19:50:05.836Z,14.4
2017-09-22T19:55:07.653Z,14.3
2017-09-22T20:00:04.948Z,14.2
2017-09-22T20:05:15.366Z,14
2017-09-22T20:10:02.593Z,14
2017-09-22T20:15:03.331Z,14
2017-09-22T20:20:04.962Z,13.8
2017-09-22T20:25:12.870Z,13.7
2017-09-22T20:30:05.156Z,13.6
2017-09-22T20:35:07.933Z,13.6
2017-09-22T20:40:05.701Z,13.5
2017-09-22T20:45:02.464Z,13.5
2017-09-22T20:50:13.353Z,13.4
2017-09-22T20:55:03.101Z,13.4
2017-09-22T21:00:05.395Z,13.3
2017-09-22T21:05:10.712Z,13.2
2017-09-22T21:10:18.129Z,13.2
2017-09-22T21:15:07.914Z,13.1
2017-09-22T21:20:17.945Z,13
2017-09-22T21:25:05.207Z,12.9
2017-09-22T21:30:10.526Z,12.8
2017-09-22T21:35:10.844Z,12.7
2017-09-22T21:40:03.119Z,12.7
2017-09-22T21:45:05.377Z,12.6
2017-09-22T21:50:05.750Z,12.5
2017-09-22T21:55:30.307Z,12.4
2017-09-22T22:00:13.126Z,12.4
2017-09-22T22:05:05.404Z,12.4
2017-09-22T22:10:07.674Z,12.3
2017-09-22T22:15:04.924Z,12.3
2017-09-22T22:20:02.737Z,12.3
2017-09-22T22:25:10.087Z,5.8
2017-09-22T22:30:02.832Z,12.2
2017-09-22T22:35:07.763Z,12.1
2017-09-22T22:40:03.015Z,12
2017-09-22T22:45:07.846Z,11.9
2017-09-22T22:50:25.349Z,11.9
2017-09-22T22:55:05.607Z,11.9
2017-09-22T23:00:03.370Z,11.8
2017-09-22T23:05:15.798Z,11.7
2017-09-22T23:10:05.549Z,11.6
2017-09-22T23:15:03.283Z,11.6
2017-09-22T23:20:05.664Z,11.6
2017-09-22T23:25:02.444Z,11.5
2017-09-22T23:30:08.257Z,11.5
2017-09-22T23:35:05.527Z,11.5
2017-09-22T23:40:10.356Z,11.4
2017-09-22T23:45:05.647Z,11.4
2017-09-22T23:50:22.641Z,11.4
2017-09-22T23:55:02.360Z,11.3
